sensor_id;sensor_type;location;lat;lon;timestamp;P1;durP1;ratioP1;P2;durP2;ratioP2
53873;SDS011;62246;50.938;4.058;2022-12-20T00:00:13;6.47;;;3.00;;
53873;SDS011;62246;50.938;4.058;2022-12-20T00:02:39;6.10;;;2.65;;
53873;SDS011;62246;50.938;4.058;2022-12-20T00:05:04;7.55;;;3.05;;
53873;SDS011;62246;50.938;4.058;2022-12-20T00:07:30;6.03;;;2.88;;
53873;SDS011;62246;50.938;4.058;2022-12-20T00:09:56;6.63;;;2.90;;
53873;SDS011;62246;50.938;4.058;2022-12-20T00:12:21;6.95;;;3.10;;
53873;SDS011;62246;50.938;4.058;2022-12-20T00:14:47;7.15;;;2.78;;
53873;SDS011;62246;50.938;4.058;2022-12-20T00:17:12;5.93;;;2.63;;
53873;SDS011;62246;50.938;4.058;2022-12-20T00:19:38;8.25;;;2.95;;
53873;SDS011;62246;50.938;4.058;2022-12-20T00:22:03;9.10;;;2.97;;
53873;SDS011;62246;50.938;4.058;2022-12-20T00:24:29;7.10;;;3.08;;
53873;SDS011;62246;50.938;4.058;2022-12-20T00:26:54;8.48;;;3.00;;
53873;SDS011;62246;50.938;4.058;2022-12-20T00:29:20;7.95;;;3.38;;
53873;SDS011;62246;50.938;4.058;2022-12-20T00:31:45;6.97;;;3.00;;
53873;SDS011;62246;50.938;4.058;2022-12-20T00:34:11;5.22;;;2.80;;
53873;SDS011;62246;50.938;4.058;2022-12-20T00:36:36;10.05;;;3.20;;
53873;SDS011;62246;50.938;4.058;2022-12-20T00:39:04;9.45;;;3.88;;
53873;SDS011;62246;50.938;4.058;2022-12-20T00:41:30;7.15;;;3.20;;
53873;SDS011;62246;50.938;4.058;2022-12-20T00:43:57;5.82;;;3.38;;
53873;SDS011;62246;50.938;4.058;2022-12-20T00:46:23;7.40;;;3.38;;
53873;SDS011;62246;50.938;4.058;2022-12-20T00:48:49;6.95;;;3.30;;
53873;SDS011;62246;50.938;4.058;2022-12-20T00:51:17;7.93;;;3.10;;
53873;SDS011;62246;50.938;4.058;2022-12-20T00:53:44;9.00;;;3.55;;
53873;SDS011;62246;50.938;4.058;2022-12-20T00:56:10;6.47;;;3.20;;
53873;SDS011;62246;50.938;4.058;2022-12-20T00:58:37;8.68;;;3.47;;
53873;SDS011;62246;50.938;4.058;2022-12-20T01:01:10;5.78;;;2.95;;
53873;SDS011;62246;50.938;4.058;2022-12-20T01:03:40;6.10;;;3.10;;
53873;SDS011;62246;50.938;4.058;2022-12-20T01:06:05;7.60;;;3.20;;
53873;SDS011;62246;50.938;4.058;2022-12-20T01:08:31;6.32;;;3.20;;
53873;SDS011;62246;50.938;4.058;2022-12-20T01:11:07;6.32;;;2.90;;
53873;SDS011;62246;50.938;4.058;2022-12-20T01:13:36;6.00;;;2.90;;
53873;SDS011;62246;50.938;4.058;2022-12-20T01:16:07;6.53;;;3.20;;
53873;SDS011;62246;50.938;4.058;2022-12-20T01:18:36;7.07;;;3.00;;
53873;SDS011;62246;50.938;4.058;2022-12-20T01:21:09;5.53;;;2.53;;
53873;SDS011;62246;50.938;4.058;2022-12-20T01:23:37;6.47;;;3.15;;
53873;SDS011;62246;50.938;4.058;2022-12-20T01:26:03;7.15;;;3.05;;
53873;SDS011;62246;50.938;4.058;2022-12-20T01:28:34;6.25;;;2.90;;
53873;SDS011;62246;50.938;4.058;2022-12-20T01:31:00;5.95;;;2.80;;
53873;SDS011;62246;50.938;4.058;2022-12-20T01:33:26;7.75;;;3.13;;
53873;SDS011;62246;50.938;4.058;2022-12-20T01:35:59;5.90;;;2.85;;
53873;SDS011;62246;50.938;4.058;2022-12-20T01:38:27;6.90;;;2.90;;
53873;SDS011;62246;50.938;4.058;2022-12-20T01:40:53;8.30;;;2.83;;
53873;SDS011;62246;50.938;4.058;2022-12-20T01:43:21;6.22;;;2.90;;
53873;SDS011;62246;50.938;4.058;2022-12-20T01:45:47;5.13;;;2.53;;
53873;SDS011;62246;50.938;4.058;2022-12-20T01:48:17;6.47;;;3.00;;
53873;SDS011;62246;50.938;4.058;2022-12-20T01:50:47;6.25;;;2.53;;
53873;SDS011;62246;50.938;4.058;2022-12-20T01:53:14;6.07;;;2.95;;
53873;SDS011;62246;50.938;4.058;2022-12-20T01:55:42;4.95;;;2.55;;
53873;SDS011;62246;50.938;4.058;2022-12-20T01:58:09;8.40;;;2.83;;
53873;SDS011;62246;50.938;4.058;2022-12-20T02:00:37;6.13;;;2.88;;
53873;SDS011;62246;50.938;4.058;2022-12-20T02:03:04;6.18;;;3.10;;
53873;SDS011;62246;50.938;4.058;2022-12-20T02:05:37;5.32;;;2.80;;
53873;SDS011;62246;50.938;4.058;2022-12-20T02:08:05;7.75;;;2.85;;
53873;SDS011;62246;50.938;4.058;2022-12-20T02:10:37;7.25;;;2.88;;
53873;SDS011;62246;50.938;4.058;2022-12-20T02:13:07;6.30;;;2.90;;
53873;SDS011;62246;50.938;4.058;2022-12-20T02:15:43;5.88;;;2.90;;
53873;SDS011;62246;50.938;4.058;2022-12-20T02:18:22;5.63;;;2.53;;
53873;SDS011;62246;50.938;4.058;2022-12-20T02:28:59;5.95;;;2.70;;
53873;SDS011;62246;50.938;4.058;2022-12-20T02:31:40;5.97;;;2.83;;
53873;SDS011;62246;50.938;4.058;2022-12-20T02:34:10;5.97;;;2.65;;
53873;SDS011;62246;50.938;4.058;2022-12-20T02:36:37;7.00;;;2.65;;
53873;SDS011;62246;50.938;4.058;2022-12-20T02:39:03;6.60;;;2.80;;
53873;SDS011;62246;50.938;4.058;2022-12-20T02:41:31;7.03;;;2.85;;
53873;SDS011;62246;50.938;4.058;2022-12-20T02:44:08;7.30;;;2.85;;
53873;SDS011;62246;50.938;4.058;2022-12-20T02:46:56;6.35;;;2.90;;
53873;SDS011;62246;50.938;4.058;2022-12-20T02:49:25;5.75;;;2.72;;
53873;SDS011;62246;50.938;4.058;2022-12-20T02:51:54;7.07;;;2.90;;
53873;SDS011;62246;50.938;4.058;2022-12-20T02:54:22;7.70;;;2.90;;
53873;SDS011;62246;50.938;4.058;2022-12-20T02:56:55;4.95;;;2.50;;
53873;SDS011;62246;50.938;4.058;2022-12-20T02:59:29;5.32;;;2.17;;
53873;SDS011;62246;50.938;4.058;2022-12-20T03:02:01;5.47;;;2.40;;
53873;SDS011;62246;50.938;4.058;2022-12-20T03:04:29;4.57;;;2.20;;
53873;SDS011;62246;50.938;4.058;2022-12-20T03:06:57;6.18;;;2.50;;
53873;SDS011;62246;50.938;4.058;2022-12-20T03:09:30;4.93;;;2.20;;
53873;SDS011;62246;50.938;4.058;2022-12-20T03:12:00;5.10;;;2.47;;
53873;SDS011;62246;50.938;4.058;2022-12-20T03:14:27;7.57;;;2.60;;
53873;SDS011;62246;50.938;4.058;2022-12-20T03:16:52;7.63;;;2.58;;
53873;SDS011;62246;50.938;4.058;2022-12-20T03:19:18;5.35;;;2.50;;
53873;SDS011;62246;50.938;4.058;2022-12-20T03:21:44;4.78;;;2.33;;
53873;SDS011;62246;50.938;4.058;2022-12-20T03:24:09;6.88;;;2.60;;
53873;SDS011;62246;50.938;4.058;2022-12-20T03:26:38;7.50;;;2.90;;
53873;SDS011;62246;50.938;4.058;2022-12-20T03:29:04;9.07;;;2.97;;
53873;SDS011;62246;50.938;4.058;2022-12-20T03:31:30;5.80;;;2.45;;
53873;SDS011;62246;50.938;4.058;2022-12-20T03:33:56;6.97;;;2.67;;
53873;SDS011;62246;50.938;4.058;2022-12-20T03:36:21;7.10;;;2.65;;
53873;SDS011;62246;50.938;4.058;2022-12-20T03:38:51;6.35;;;2.70;;
53873;SDS011;62246;50.938;4.058;2022-12-20T03:41:18;9.82;;;2.58;;
53873;SDS011;62246;50.938;4.058;2022-12-20T03:43:45;5.97;;;2.40;;
53873;SDS011;62246;50.938;4.058;2022-12-20T03:46:11;5.30;;;2.20;;
53873;SDS011;62246;50.938;4.058;2022-12-20T03:48:36;7.95;;;2.72;;
53873;SDS011;62246;50.938;4.058;2022-12-20T03:51:04;6.50;;;2.90;;
53873;SDS011;62246;50.938;4.058;2022-12-20T03:53:30;7.90;;;2.75;;
53873;SDS011;62246;50.938;4.058;2022-12-20T03:55:56;9.43;;;2.80;;
53873;SDS011;62246;50.938;4.058;2022-12-20T03:58:21;5.53;;;2.72;;
53873;SDS011;62246;50.938;4.058;2022-12-20T04:00:47;4.70;;;2.72;;
53873;SDS011;62246;50.938;4.058;2022-12-20T04:03:13;6.43;;;2.95;;
53873;SDS011;62246;50.938;4.058;2022-12-20T04:05:38;6.40;;;2.67;;
53873;SDS011;62246;50.938;4.058;2022-12-20T04:08:04;5.40;;;2.40;;
53873;SDS011;62246;50.938;4.058;2022-12-20T04:10:29;5.22;;;2.58;;
53873;SDS011;62246;50.938;4.058;2022-12-20T04:12:55;9.40;;;2.65;;
53873;SDS011;62246;50.938;4.058;2022-12-20T04:15:20;4.95;;;2.30;;
53873;SDS011;62246;50.938;4.058;2022-12-20T04:17:46;8.32;;;2.63;;
53873;SDS011;62246;50.938;4.058;2022-12-20T04:20:15;4.93;;;2.40;;
53873;SDS011;62246;50.938;4.058;2022-12-20T04:22:47;7.03;;;2.80;;
53873;SDS011;62246;50.938;4.058;2022-12-20T04:25:14;3.42;;;2.30;;
53873;SDS011;62246;50.938;4.058;2022-12-20T04:27:41;4.78;;;2.40;;
53873;SDS011;62246;50.938;4.058;2022-12-20T04:30:07;6.93;;;2.50;;
53873;SDS011;62246;50.938;4.058;2022-12-20T04:32:33;6.05;;;2.47;;
53873;SDS011;62246;50.938;4.058;2022-12-20T04:34:58;5.50;;;2.53;;
53873;SDS011;62246;50.938;4.058;2022-12-20T04:37:24;7.38;;;2.42;;
53873;SDS011;62246;50.938;4.058;2022-12-20T04:39:49;7.20;;;2.45;;
53873;SDS011;62246;50.938;4.058;2022-12-20T04:42:15;4.32;;;2.17;;
53873;SDS011;62246;50.938;4.058;2022-12-20T04:44:40;5.18;;;2.40;;
53873;SDS011;62246;50.938;4.058;2022-12-20T04:47:05;5.75;;;2.20;;
53873;SDS011;62246;50.938;4.058;2022-12-20T04:49:31;4.85;;;1.95;;
53873;SDS011;62246;50.938;4.058;2022-12-20T04:51:56;7.28;;;2.00;;
53873;SDS011;62246;50.938;4.058;2022-12-20T04:54:42;5.70;;;2.22;;
53873;SDS011;62246;50.938;4.058;2022-12-20T04:57:07;7.30;;;2.20;;
53873;SDS011;62246;50.938;4.058;2022-12-20T04:59:34;5.03;;;2.10;;
53873;SDS011;62246;50.938;4.058;2022-12-20T05:01:59;4.90;;;2.15;;
53873;SDS011;62246;50.938;4.058;2022-12-20T05:04:25;4.30;;;2.05;;
53873;SDS011;62246;50.938;4.058;2022-12-20T05:06:51;5.72;;;2.20;;
53873;SDS011;62246;50.938;4.058;2022-12-20T05:09:16;5.40;;;2.17;;
53873;SDS011;62246;50.938;4.058;2022-12-20T05:11:42;5.25;;;2.20;;
53873;SDS011;62246;50.938;4.058;2022-12-20T05:14:07;4.22;;;2.28;;
53873;SDS011;62246;50.938;4.058;2022-12-20T05:16:33;6.38;;;2.22;;
53873;SDS011;62246;50.938;4.058;2022-12-20T05:18:58;4.28;;;2.03;;
53873;SDS011;62246;50.938;4.058;2022-12-20T05:21:24;6.38;;;2.20;;
53873;SDS011;62246;50.938;4.058;2022-12-20T05:24:08;6.93;;;2.10;;
53873;SDS011;62246;50.938;4.058;2022-12-20T05:26:52;4.57;;;1.70;;
53873;SDS011;62246;50.938;4.058;2022-12-20T05:29:18;6.68;;;1.88;;
53873;SDS011;62246;50.938;4.058;2022-12-20T05:31:44;5.50;;;1.88;;
53873;SDS011;62246;50.938;4.058;2022-12-20T05:34:09;4.65;;;2.05;;
53873;SDS011;62246;50.938;4.058;2022-12-20T05:36:35;4.28;;;1.80;;
53873;SDS011;62246;50.938;4.058;2022-12-20T05:39:00;3.72;;;1.75;;
53873;SDS011;62246;50.938;4.058;2022-12-20T05:41:25;3.50;;;1.70;;
53873;SDS011;62246;50.938;4.058;2022-12-20T05:43:51;6.13;;;1.98;;
53873;SDS011;62246;50.938;4.058;2022-12-20T05:46:16;4.90;;;2.00;;
53873;SDS011;62246;50.938;4.058;2022-12-20T05:48:42;4.28;;;1.98;;
53873;SDS011;62246;50.938;4.058;2022-12-20T05:51:07;4.85;;;1.92;;
53873;SDS011;62246;50.938;4.058;2022-12-20T05:53:33;5.00;;;2.17;;
53873;SDS011;62246;50.938;4.058;2022-12-20T05:55:59;4.65;;;1.92;;
53873;SDS011;62246;50.938;4.058;2022-12-20T05:58:25;4.45;;;1.88;;
53873;SDS011;62246;50.938;4.058;2022-12-20T06:00:51;5.15;;;1.88;;
53873;SDS011;62246;50.938;4.058;2022-12-20T06:03:17;5.97;;;2.42;;
53873;SDS011;62246;50.938;4.058;2022-12-20T06:05:43;5.15;;;1.70;;
53873;SDS011;62246;50.938;4.058;2022-12-20T06:08:09;5.05;;;1.88;;
53873;SDS011;62246;50.938;4.058;2022-12-20T06:10:36;3.90;;;1.83;;
53873;SDS011;62246;50.938;4.058;2022-12-20T06:13:03;3.13;;;1.67;;
53873;SDS011;62246;50.938;4.058;2022-12-20T06:15:28;4.38;;;2.00;;
53873;SDS011;62246;50.938;4.058;2022-12-20T06:17:54;3.85;;;1.55;;
53873;SDS011;62246;50.938;4.058;2022-12-20T06:20:21;3.63;;;1.73;;
53873;SDS011;62246;50.938;4.058;2022-12-20T06:22:46;4.40;;;1.70;;
53873;SDS011;62246;50.938;4.058;2022-12-20T06:25:12;3.50;;;1.80;;
53873;SDS011;62246;50.938;4.058;2022-12-20T06:27:39;5.22;;;1.60;;
53873;SDS011;62246;50.938;4.058;2022-12-20T06:30:06;4.60;;;1.80;;
53873;SDS011;62246;50.938;4.058;2022-12-20T06:32:32;5.15;;;1.90;;
53873;SDS011;62246;50.938;4.058;2022-12-20T06:34:58;6.30;;;2.08;;
53873;SDS011;62246;50.938;4.058;2022-12-20T06:37:23;4.38;;;1.77;;
53873;SDS011;62246;50.938;4.058;2022-12-20T06:39:49;5.85;;;2.00;;
53873;SDS011;62246;50.938;4.058;2022-12-20T06:42:14;6.10;;;1.92;;
53873;SDS011;62246;50.938;4.058;2022-12-20T06:44:40;5.90;;;1.55;;
53873;SDS011;62246;50.938;4.058;2022-12-20T06:47:05;6.65;;;2.20;;
53873;SDS011;62246;50.938;4.058;2022-12-20T06:49:31;4.60;;;1.65;;
53873;SDS011;62246;50.938;4.058;2022-12-20T06:51:56;5.85;;;2.00;;
53873;SDS011;62246;50.938;4.058;2022-12-20T06:54:22;2.45;;;1.60;;
53873;SDS011;62246;50.938;4.058;2022-12-20T06:56:47;9.68;;;2.00;;
53873;SDS011;62246;50.938;4.058;2022-12-20T06:59:13;4.55;;;1.48;;
53873;SDS011;62246;50.938;4.058;2022-12-20T07:01:38;4.88;;;2.05;;
53873;SDS011;62246;50.938;4.058;2022-12-20T07:04:03;6.60;;;2.10;;
53873;SDS011;62246;50.938;4.058;2022-12-20T07:06:29;5.65;;;1.70;;
53873;SDS011;62246;50.938;4.058;2022-12-20T07:08:54;5.40;;;1.52;;
53873;SDS011;62246;50.938;4.058;2022-12-20T07:11:20;4.45;;;1.60;;
53873;SDS011;62246;50.938;4.058;2022-12-20T07:13:45;6.70;;;1.80;;
53873;SDS011;62246;50.938;4.058;2022-12-20T07:16:11;5.57;;;1.90;;
53873;SDS011;62246;50.938;4.058;2022-12-20T07:18:36;5.25;;;1.60;;
53873;SDS011;62246;50.938;4.058;2022-12-20T07:21:05;6.15;;;1.95;;
53873;SDS011;62246;50.938;4.058;2022-12-20T07:23:31;4.88;;;2.00;;
53873;SDS011;62246;50.938;4.058;2022-12-20T07:25:58;6.90;;;2.00;;
53873;SDS011;62246;50.938;4.058;2022-12-20T07:28:25;4.30;;;2.10;;
53873;SDS011;62246;50.938;4.058;2022-12-20T07:30:51;6.10;;;2.22;;
53873;SDS011;62246;50.938;4.058;2022-12-20T07:33:17;6.97;;;2.35;;
53873;SDS011;62246;50.938;4.058;2022-12-20T07:35:42;8.70;;;2.55;;
53873;SDS011;62246;50.938;4.058;2022-12-20T07:38:09;6.35;;;2.17;;
53873;SDS011;62246;50.938;4.058;2022-12-20T07:40:38;5.82;;;2.13;;
53873;SDS011;62246;50.938;4.058;2022-12-20T07:43:04;6.75;;;2.47;;
53873;SDS011;62246;50.938;4.058;2022-12-20T07:45:30;8.60;;;2.40;;
53873;SDS011;62246;50.938;4.058;2022-12-20T07:47:55;8.65;;;2.60;;
53873;SDS011;62246;50.938;4.058;2022-12-20T07:50:21;5.43;;;2.13;;
53873;SDS011;62246;50.938;4.058;2022-12-20T07:52:48;5.57;;;2.58;;
53873;SDS011;62246;50.938;4.058;2022-12-20T07:55:14;7.47;;;2.80;;
53873;SDS011;62246;50.938;4.058;2022-12-20T07:57:46;6.43;;;2.67;;
53873;SDS011;62246;50.938;4.058;2022-12-20T08:00:15;8.82;;;2.70;;
53873;SDS011;62246;50.938;4.058;2022-12-20T08:05:17;9.93;;;2.70;;
53873;SDS011;62246;50.938;4.058;2022-12-20T08:07:43;9.93;;;2.85;;
53873;SDS011;62246;50.938;4.058;2022-12-20T08:10:11;8.10;;;2.90;;
53873;SDS011;62246;50.938;4.058;2022-12-20T08:12:40;5.65;;;2.88;;
53873;SDS011;62246;50.938;4.058;2022-12-20T08:15:07;6.60;;;3.10;;
53873;SDS011;62246;50.938;4.058;2022-12-20T08:17:33;7.35;;;2.75;;
53873;SDS011;62246;50.938;4.058;2022-12-20T08:19:58;6.82;;;2.63;;
53873;SDS011;62246;50.938;4.058;2022-12-20T08:22:24;7.47;;;2.50;;
53873;SDS011;62246;50.938;4.058;2022-12-20T08:24:50;8.82;;;2.63;;
53873;SDS011;62246;50.938;4.058;2022-12-20T08:27:15;5.57;;;2.63;;
53873;SDS011;62246;50.938;4.058;2022-12-20T08:29:41;4.32;;;2.30;;
53873;SDS011;62246;50.938;4.058;2022-12-20T08:32:06;5.10;;;2.35;;
53873;SDS011;62246;50.938;4.058;2022-12-20T08:34:32;8.48;;;2.67;;
53873;SDS011;62246;50.938;4.058;2022-12-20T08:36:58;6.78;;;2.40;;
53873;SDS011;62246;50.938;4.058;2022-12-20T08:39:24;6.18;;;2.58;;
53873;SDS011;62246;50.938;4.058;2022-12-20T08:41:49;7.22;;;2.60;;
53873;SDS011;62246;50.938;4.058;2022-12-20T08:44:15;7.40;;;2.60;;
53873;SDS011;62246;50.938;4.058;2022-12-20T08:46:40;8.10;;;3.00;;
53873;SDS011;62246;50.938;4.058;2022-12-20T08:49:05;9.38;;;2.53;;
53873;SDS011;62246;50.938;4.058;2022-12-20T08:51:31;8.52;;;2.72;;
53873;SDS011;62246;50.938;4.058;2022-12-20T08:53:56;7.45;;;2.83;;
53873;SDS011;62246;50.938;4.058;2022-12-20T08:56:22;9.90;;;3.00;;
53873;SDS011;62246;50.938;4.058;2022-12-20T08:58:48;8.45;;;2.65;;
53873;SDS011;62246;50.938;4.058;2022-12-20T09:01:15;6.60;;;2.42;;
53873;SDS011;62246;50.938;4.058;2022-12-20T09:03:42;5.93;;;2.30;;
53873;SDS011;62246;50.938;4.058;2022-12-20T09:06:10;7.57;;;3.00;;
53873;SDS011;62246;50.938;4.058;2022-12-20T09:08:37;6.22;;;2.65;;
53873;SDS011;62246;50.938;4.058;2022-12-20T09:11:08;7.13;;;2.90;;
53873;SDS011;62246;50.938;4.058;2022-12-20T09:13:38;9.20;;;3.20;;
53873;SDS011;62246;50.938;4.058;2022-12-20T09:16:05;10.38;;;3.00;;
53873;SDS011;62246;50.938;4.058;2022-12-20T09:18:31;6.43;;;2.40;;
53873;SDS011;62246;50.938;4.058;2022-12-20T09:21:00;9.93;;;3.38;;
53873;SDS011;62246;50.938;4.058;2022-12-20T09:23:28;5.25;;;2.78;;
53873;SDS011;62246;50.938;4.058;2022-12-20T09:25:54;8.88;;;2.90;;
53873;SDS011;62246;50.938;4.058;2022-12-20T09:28:25;9.60;;;3.08;;
53873;SDS011;62246;50.938;4.058;2022-12-20T09:30:50;7.53;;;2.95;;
53873;SDS011;62246;50.938;4.058;2022-12-20T09:33:15;4.55;;;2.17;;
53873;SDS011;62246;50.938;4.058;2022-12-20T09:35:44;7.35;;;3.00;;
53873;SDS011;62246;50.938;4.058;2022-12-20T09:38:11;8.30;;;2.83;;
53873;SDS011;62246;50.938;4.058;2022-12-20T09:40:36;5.53;;;2.75;;
53873;SDS011;62246;50.938;4.058;2022-12-20T09:43:03;7.97;;;3.10;;
53873;SDS011;62246;50.938;4.058;2022-12-20T09:45:29;8.18;;;3.15;;
53873;SDS011;62246;50.938;4.058;2022-12-20T09:47:59;6.30;;;2.60;;
53873;SDS011;62246;50.938;4.058;2022-12-20T09:50:31;7.82;;;2.88;;
53873;SDS011;62246;50.938;4.058;2022-12-20T09:53:21;6.68;;;2.50;;
53873;SDS011;62246;50.938;4.058;2022-12-20T09:55:57;7.60;;;2.72;;
53873;SDS011;62246;50.938;4.058;2022-12-20T10:01:15;7.53;;;3.00;;
53873;SDS011;62246;50.938;4.058;2022-12-20T10:03:51;7.70;;;3.20;;
53873;SDS011;62246;50.938;4.058;2022-12-20T10:12:33;8.38;;;3.15;;
53873;SDS011;62246;50.938;4.058;2022-12-20T10:23:27;5.50;;;2.90;;
53873;SDS011;62246;50.938;4.058;2022-12-20T10:26:01;7.45;;;2.92;;
53873;SDS011;62246;50.938;4.058;2022-12-20T10:28:33;7.15;;;2.92;;
53873;SDS011;62246;50.938;4.058;2022-12-20T10:31:06;11.65;;;3.20;;
53873;SDS011;62246;50.938;4.058;2022-12-20T10:33:36;7.03;;;2.45;;
53873;SDS011;62246;50.938;4.058;2022-12-20T10:36:22;12.68;;;3.45;;
53873;SDS011;62246;50.938;4.058;2022-12-20T10:38:50;6.13;;;2.90;;
53873;SDS011;62246;50.938;4.058;2022-12-20T10:41:18;8.40;;;3.00;;
53873;SDS011;62246;50.938;4.058;2022-12-20T10:43:46;7.13;;;3.05;;
53873;SDS011;62246;50.938;4.058;2022-12-20T10:46:16;7.55;;;3.20;;
53873;SDS011;62246;50.938;4.058;2022-12-20T10:48:42;13.52;;;4.22;;
53873;SDS011;62246;50.938;4.058;2022-12-20T10:53:53;7.07;;;2.92;;
53873;SDS011;62246;50.938;4.058;2022-12-20T10:56:23;7.40;;;3.22;;
53873;SDS011;62246;50.938;4.058;2022-12-20T11:01:34;7.45;;;3.35;;
53873;SDS011;62246;50.938;4.058;2022-12-20T11:04:03;9.00;;;3.45;;
53873;SDS011;62246;50.938;4.058;2022-12-20T11:11:58;8.23;;;3.50;;
53873;SDS011;62246;50.938;4.058;2022-12-20T11:14:32;7.35;;;3.35;;
53873;SDS011;62246;50.938;4.058;2022-12-20T11:17:00;8.45;;;3.72;;
53873;SDS011;62246;50.938;4.058;2022-12-20T11:19:47;5.78;;;2.75;;
53873;SDS011;62246;50.938;4.058;2022-12-20T11:30:42;8.48;;;3.40;;
53873;SDS011;62246;50.938;4.058;2022-12-20T11:33:22;5.45;;;2.33;;
53873;SDS011;62246;50.938;4.058;2022-12-20T11:35:56;5.50;;;3.00;;
53873;SDS011;62246;50.938;4.058;2022-12-20T11:57:45;7.65;;;3.28;;
53873;SDS011;62246;50.938;4.058;2022-12-20T12:00:18;10.88;;;3.55;;
53873;SDS011;62246;50.938;4.058;2022-12-20T12:08:00;9.50;;;3.40;;
53873;SDS011;62246;50.938;4.058;2022-12-20T12:10:33;8.10;;;3.63;;
53873;SDS011;62246;50.938;4.058;2022-12-20T12:13:13;5.57;;;3.00;;
53873;SDS011;62246;50.938;4.058;2022-12-20T12:16:00;7.03;;;3.47;;
53873;SDS011;62246;50.938;4.058;2022-12-20T12:18:33;7.95;;;3.17;;
53873;SDS011;62246;50.938;4.058;2022-12-20T12:23:44;6.90;;;2.85;;
53873;SDS011;62246;50.938;4.058;2022-12-20T12:26:29;7.63;;;3.08;;
53873;SDS011;62246;50.938;4.058;2022-12-20T12:28:58;9.38;;;3.28;;
53873;SDS011;62246;50.938;4.058;2022-12-20T12:31:28;7.50;;;3.40;;
53873;SDS011;62246;50.938;4.058;2022-12-20T12:34:02;10.93;;;3.60;;
53873;SDS011;62246;50.938;4.058;2022-12-20T12:36:34;8.50;;;3.53;;
53873;SDS011;62246;50.938;4.058;2022-12-20T12:44:48;7.68;;;3.22;;
53873;SDS011;62246;50.938;4.058;2022-12-20T12:47:36;9.73;;;3.97;;
53873;SDS011;62246;50.938;4.058;2022-12-20T12:50:07;8.00;;;3.65;;
53873;SDS011;62246;50.938;4.058;2022-12-20T12:52:50;7.88;;;3.42;;
53873;SDS011;62246;50.938;4.058;2022-12-20T13:00:53;9.10;;;3.80;;
53873;SDS011;62246;50.938;4.058;2022-12-20T13:03:34;7.60;;;3.63;;
53873;SDS011;62246;50.938;4.058;2022-12-20T13:11:35;8.43;;;3.15;;
53873;SDS011;62246;50.938;4.058;2022-12-20T13:16:42;7.85;;;3.15;;
53873;SDS011;62246;50.938;4.058;2022-12-20T13:19:34;6.88;;;2.58;;
53873;SDS011;62246;50.938;4.058;2022-12-20T13:27:25;9.50;;;3.58;;
53873;SDS011;62246;50.938;4.058;2022-12-20T13:37:58;11.40;;;4.10;;
53873;SDS011;62246;50.938;4.058;2022-12-20T13:40:41;9.57;;;4.18;;
53873;SDS011;62246;50.938;4.058;2022-12-20T13:45:45;7.72;;;3.50;;
53873;SDS011;62246;50.938;4.058;2022-12-20T13:48:21;10.40;;;4.57;;
53873;SDS011;62246;50.938;4.058;2022-12-20T13:50:53;7.13;;;4.07;;
53873;SDS011;62246;50.938;4.058;2022-12-20T13:53:21;11.75;;;4.35;;
53873;SDS011;62246;50.938;4.058;2022-12-20T13:55:48;11.27;;;4.07;;
53873;SDS011;62246;50.938;4.058;2022-12-20T14:00:45;11.30;;;4.20;;
53873;SDS011;62246;50.938;4.058;2022-12-20T14:03:14;11.90;;;4.28;;
53873;SDS011;62246;50.938;4.058;2022-12-20T14:05:44;11.98;;;4.00;;
53873;SDS011;62246;50.938;4.058;2022-12-20T14:08:17;11.27;;;4.28;;
53873;SDS011;62246;50.938;4.058;2022-12-20T14:10:50;11.32;;;4.32;;
53873;SDS011;62246;50.938;4.058;2022-12-20T14:13:26;10.90;;;4.28;;
53873;SDS011;62246;50.938;4.058;2022-12-20T14:15:52;10.68;;;4.00;;
53873;SDS011;62246;50.938;4.058;2022-12-20T14:18:21;11.25;;;5.00;;
53873;SDS011;62246;50.938;4.058;2022-12-20T14:23:23;10.43;;;4.30;;
53873;SDS011;62246;50.938;4.058;2022-12-20T14:26:01;12.23;;;4.95;;
53873;SDS011;62246;50.938;4.058;2022-12-20T14:28:34;12.23;;;5.15;;
53873;SDS011;62246;50.938;4.058;2022-12-20T14:31:00;11.52;;;5.07;;
53873;SDS011;62246;50.938;4.058;2022-12-20T14:33:37;11.55;;;5.43;;
53873;SDS011;62246;50.938;4.058;2022-12-20T14:38:42;9.93;;;4.90;;
53873;SDS011;62246;50.938;4.058;2022-12-20T14:41:28;9.45;;;4.82;;
53873;SDS011;62246;50.938;4.058;2022-12-20T14:43:55;13.63;;;4.97;;
53873;SDS011;62246;50.938;4.058;2022-12-20T14:46:22;10.55;;;5.60;;
53873;SDS011;62246;50.938;4.058;2022-12-20T14:48:47;13.60;;;6.00;;
53873;SDS011;62246;50.938;4.058;2022-12-20T14:51:29;11.88;;;5.45;;
53873;SDS011;62246;50.938;4.058;2022-12-20T14:53:54;16.80;;;5.68;;
53873;SDS011;62246;50.938;4.058;2022-12-20T14:56:22;12.10;;;6.18;;
53873;SDS011;62246;50.938;4.058;2022-12-20T14:59:00;10.23;;;5.05;;
53873;SDS011;62246;50.938;4.058;2022-12-20T15:01:30;11.45;;;5.50;;
53873;SDS011;62246;50.938;4.058;2022-12-20T15:03:57;12.48;;;5.65;;
53873;SDS011;62246;50.938;4.058;2022-12-20T15:06:34;13.27;;;6.05;;
53873;SDS011;62246;50.938;4.058;2022-12-20T15:09:05;12.88;;;6.22;;
53873;SDS011;62246;50.938;4.058;2022-12-20T15:11:30;11.13;;;6.13;;
53873;SDS011;62246;50.938;4.058;2022-12-20T15:13:58;13.25;;;6.18;;
53873;SDS011;62246;50.938;4.058;2022-12-20T15:16:25;12.50;;;6.15;;
53873;SDS011;62246;50.938;4.058;2022-12-20T15:18:56;12.05;;;6.43;;
53873;SDS011;62246;50.938;4.058;2022-12-20T15:24:07;12.02;;;6.00;;
53873;SDS011;62246;50.938;4.058;2022-12-20T15:26:36;9.63;;;5.35;;
53873;SDS011;62246;50.938;4.058;2022-12-20T15:29:01;12.15;;;5.65;;
53873;SDS011;62246;50.938;4.058;2022-12-20T15:31:31;10.68;;;5.75;;
53873;SDS011;62246;50.938;4.058;2022-12-20T15:34:09;8.52;;;5.30;;
53873;SDS011;62246;50.938;4.058;2022-12-20T15:36:38;12.60;;;5.50;;
53873;SDS011;62246;50.938;4.058;2022-12-20T15:39:04;12.05;;;5.90;;
53873;SDS011;62246;50.938;4.058;2022-12-20T15:41:30;10.27;;;5.78;;
53873;SDS011;62246;50.938;4.058;2022-12-20T15:44:05;9.33;;;4.50;;
53873;SDS011;62246;50.938;4.058;2022-12-20T15:46:35;13.10;;;6.57;;
53873;SDS011;62246;50.938;4.058;2022-12-20T15:49:00;10.27;;;5.43;;
53873;SDS011;62246;50.938;4.058;2022-12-20T15:51:29;9.55;;;5.90;;
53873;SDS011;62246;50.938;4.058;2022-12-20T15:53:57;13.23;;;5.93;;
53873;SDS011;62246;50.938;4.058;2022-12-20T15:56:24;11.00;;;6.07;;
53873;SDS011;62246;50.938;4.058;2022-12-20T15:58:50;12.80;;;5.90;;
53873;SDS011;62246;50.938;4.058;2022-12-20T16:03:48;10.90;;;6.38;;
53873;SDS011;62246;50.938;4.058;2022-12-20T16:06:13;8.60;;;5.35;;
53873;SDS011;62246;50.938;4.058;2022-12-20T16:08:39;9.27;;;5.32;;
53873;SDS011;62246;50.938;4.058;2022-12-20T16:11:24;10.00;;;5.60;;
53873;SDS011;62246;50.938;4.058;2022-12-20T16:13:52;9.30;;;5.80;;
53873;SDS011;62246;50.938;4.058;2022-12-20T16:16:19;10.55;;;6.22;;
53873;SDS011;62246;50.938;4.058;2022-12-20T16:18:47;13.18;;;6.05;;
53873;SDS011;62246;50.938;4.058;2022-12-20T16:21:19;9.70;;;5.97;;
53873;SDS011;62246;50.938;4.058;2022-12-20T16:23:47;10.70;;;6.38;;
53873;SDS011;62246;50.938;4.058;2022-12-20T16:26:15;13.98;;;6.90;;
53873;SDS011;62246;50.938;4.058;2022-12-20T16:28:44;13.38;;;6.78;;
53873;SDS011;62246;50.938;4.058;2022-12-20T16:31:14;12.43;;;7.13;;
53873;SDS011;62246;50.938;4.058;2022-12-20T16:33:44;15.02;;;7.90;;
53873;SDS011;62246;50.938;4.058;2022-12-20T16:36:10;13.98;;;7.60;;
53873;SDS011;62246;50.938;4.058;2022-12-20T16:38:36;15.35;;;8.20;;
53873;SDS011;62246;50.938;4.058;2022-12-20T16:41:11;12.30;;;7.28;;
53873;SDS011;62246;50.938;4.058;2022-12-20T16:44:03;14.13;;;8.23;;
53873;SDS011;62246;50.938;4.058;2022-12-20T16:46:29;13.85;;;8.48;;
53873;SDS011;62246;50.938;4.058;2022-12-20T16:48:57;33.53;;;17.60;;
53873;SDS011;62246;50.938;4.058;2022-12-20T16:51:34;30.98;;;14.48;;
53873;SDS011;62246;50.938;4.058;2022-12-20T16:54:05;29.25;;;13.70;;
53873;SDS011;62246;50.938;4.058;2022-12-20T16:56:41;16.95;;;9.65;;